createdAt,value
2015-07-18T00:00:07.449Z,11.21
2015-07-18T00:00:19.795Z,11.18
2015-07-18T00:00:32.138Z,11.23
2015-07-18T00:00:44.482Z,11.18
2015-07-18T00:00:56.810Z,11.18
2015-07-18T00:01:09.138Z,11.16
2015-07-18T00:01:21.750Z,11.1
2015-07-18T00:01:34.093Z,11.21
2015-07-18T00:01:46.422Z,11.15
2015-07-18T00:01:58.765Z,11.15
2015-07-18T00:02:11.093Z,11.21
2015-07-18T00:02:23.439Z,11.18
2015-07-18T00:02:35.799Z,11.12
2015-07-18T00:02:48.127Z,11.13
2015-07-18T00:03:00.470Z,11.13
2015-07-18T00:03:12.815Z,11.18
2015-07-18T00:03:25.159Z,11.15
2015-07-18T00:03:37.503Z,11.18
2015-07-18T00:03:49.846Z,11.13
2015-07-18T00:04:02.221Z,11.16
2015-07-18T00:04:14.615Z,11.18
2015-07-18T00:04:26.974Z,11.2
2015-07-18T00:04:39.349Z,11.18
2015-07-18T00:04:51.709Z,11.15
2015-07-18T00:05:04.099Z,11.16
2015-07-18T00:05:16.461Z,11.15
2015-07-18T00:05:28.805Z,11.09
2015-07-18T00:05:41.133Z,11.09
2015-07-18T00:05:53.461Z,11.15
2015-07-18T00:06:05.805Z,11.18
2015-07-18T00:06:18.135Z,11.09
2015-07-18T00:06:30.463Z,11.18
2015-07-18T00:06:42.807Z,11.13
2015-07-18T00:06:55.135Z,11.13
2015-07-18T00:07:07.478Z,11.12
2015-07-18T00:07:19.824Z,11.08
2015-07-18T00:07:32.168Z,11.05
2015-07-18T00:07:44.512Z,11.15
2015-07-18T00:07:56.699Z,11.15
2015-07-18T00:08:09.043Z,11.15
2015-07-18T00:08:21.373Z,11.02
2015-07-18T00:08:33.717Z,11.13
2015-07-18T00:08:46.076Z,11.1
2015-07-18T00:08:58.420Z,11.13
2015-07-18T00:09:10.779Z,11.09
2015-07-18T00:09:23.125Z,11.1
2015-07-18T00:09:35.484Z,11.09
2015-07-18T00:09:47.859Z,11.06
2015-07-18T00:10:00.219Z,11.05
2015-07-18T00:10:12.594Z,11.05
2015-07-18T00:10:24.954Z,11.12
2015-07-18T00:10:37.329Z,11.09
2015-07-18T00:10:49.704Z,10.98
2015-07-18T00:11:02.048Z,11.09
2015-07-18T00:11:14.376Z,11.05
2015-07-18T00:11:26.738Z,11.03
2015-07-18T00:11:39.082Z,11.02
2015-07-18T00:11:51.426Z,11
2015-07-18T00:12:03.770Z,10.95
2015-07-18T00:12:16.098Z,11.03
2015-07-18T00:12:28.443Z,11.06
2015-07-18T00:12:40.786Z,10.97
2015-07-18T00:12:53.130Z,11.03
2015-07-18T00:13:05.458Z,11
2015-07-18T00:13:17.802Z,10.98
2015-07-18T00:13:30.133Z,11
2015-07-18T00:13:42.477Z,11.02
2015-07-18T00:13:54.805Z,11
2015-07-18T00:14:07.133Z,10.98
2015-07-18T00:14:19.477Z,10.94
2015-07-18T00:14:31.838Z,11.06
2015-07-18T00:14:44.182Z,10.92
2015-07-18T00:14:56.541Z,10.98
2015-07-18T00:15:08.901Z,11.03
2015-07-18T00:15:21.291Z,10.98
2015-07-18T00:15:33.667Z,10.98
2015-07-18T00:15:46.027Z,10.92
2015-07-18T00:15:58.402Z,10.95
2015-07-18T00:16:10.761Z,10.91
2015-07-18T00:16:23.120Z,11.02
2015-07-18T00:16:35.513Z,10.97
2015-07-18T00:16:47.872Z,10.95
2015-07-18T00:17:00.216Z,10.98
2015-07-18T00:17:12.560Z,11.05
2015-07-18T00:17:24.904Z,10.97
2015-07-18T00:17:37.250Z,11.05
2015-07-18T00:17:49.610Z,10.97
2015-07-18T00:18:01.938Z,11
2015-07-18T00:18:14.282Z,11
2015-07-18T00:18:26.625Z,10.94
2015-07-18T00:18:38.971Z,11.02
2015-07-18T00:18:51.299Z,10.88
2015-07-18T00:19:03.643Z,10.91
2015-07-18T00:19:15.987Z,10.94
2015-07-18T00:19:28.331Z,10.87
2015-07-18T00:19:40.675Z,10.98
2015-07-18T00:19:53.019Z,10.88
2015-07-18T00:20:05.363Z,10.9
2015-07-18T00:20:17.738Z,10.98
2015-07-18T00:20:30.082Z,10.91
2015-07-18T00:20:42.693Z,10.97
2015-07-18T00:20:55.334Z,10.88
2015-07-18T00:21:07.709Z,10.92
2015-07-18T00:21:20.084Z,10.85
2015-07-18T00:21:32.443Z,10.94
2015-07-18T00:21:44.821Z,10.94
2015-07-18T00:21:57.212Z,10.92
2015-07-18T00:22:09.571Z,10.91
2015-07-18T00:22:21.915Z,10.88
2015-07-18T00:22:34.258Z,10.91
2015-07-18T00:22:46.431Z,10.98
2015-07-18T00:22:58.775Z,10.88
2015-07-18T00:23:11.119Z,10.97
2015-07-18T00:23:23.463Z,10.9
2015-07-18T00:23:35.806Z,11
2015-07-18T00:23:48.152Z,10.94
2015-07-18T00:24:00.496Z,10.97
2015-07-18T00:24:12.840Z,10.9
2015-07-18T00:24:25.183Z,10.98
2015-07-18T00:24:37.527Z,10.87
2015-07-18T00:24:49.857Z,10.9
2015-07-18T00:25:02.217Z,10.9
2015-07-18T00:25:14.545Z,10.95
2015-07-18T00:25:26.888Z,10.87
2015-07-18T00:25:39.217Z,10.87
2015-07-18T00:25:51.578Z,10.9
2015-07-18T00:26:03.937Z,10.87
2015-07-18T00:26:16.281Z,10.91
2015-07-18T00:26:28.640Z,10.9
2015-07-18T00:26:41.015Z,10.87
2015-07-18T00:26:53.392Z,10.98
2015-07-18T00:27:05.752Z,10.97
2015-07-18T00:27:18.111Z,10.87
2015-07-18T00:27:30.471Z,10.88
2015-07-18T00:27:42.142Z,11
2015-07-18T00:27:54.535Z,10.88
2015-07-18T00:28:06.879Z,10.97
2015-07-18T00:28:19.223Z,11
2015-07-18T00:28:31.566Z,10.97
2015-07-18T00:28:43.894Z,10.91
2015-07-18T00:28:56.256Z,10.97
2015-07-18T00:29:08.600Z,10.9
2015-07-18T00:29:20.928Z,11.02
2015-07-18T00:29:33.271Z,10.98
2015-07-18T00:29:45.459Z,10.95
2015-07-18T00:29:57.789Z,10.92
2015-07-18T00:30:10.133Z,11.06
2015-07-18T00:30:22.477Z,10.98
2015-07-18T00:30:34.883Z,10.95
2015-07-18T00:30:47.227Z,10.98
2015-07-18T00:30:59.571Z,10.9
2015-07-18T00:31:11.899Z,10.87
2015-07-18T00:31:24.243Z,11
2015-07-18T00:31:36.603Z,10.95
2015-07-18T00:31:49.215Z,10.85
2015-07-18T00:32:01.574Z,10.94
2015-07-18T00:32:13.934Z,10.94
2015-07-18T00:32:26.293Z,10.87
2015-07-18T00:32:38.668Z,10.98
2015-07-18T00:32:51.029Z,10.92
2015-07-18T00:33:02.686Z,10.98
2015-07-18T00:33:15.108Z,10.87
2015-07-18T00:33:27.483Z,10.97
2015-07-18T00:33:39.826Z,10.84
2015-07-18T00:33:52.156Z,10.9
2015-07-18T00:34:04.500Z,10.97
2015-07-18T00:34:16.844Z,10.98
2015-07-18T00:34:29.188Z,10.98
2015-07-18T00:34:41.531Z,10.9
2015-07-18T00:34:53.876Z,10.9
2015-07-18T00:35:06.220Z,10.85
2015-07-18T00:35:18.579Z,10.92
2015-07-18T00:35:30.907Z,10.92
2015-07-18T00:35:43.267Z,10.91
2015-07-18T00:35:55.598Z,10.97
2015-07-18T00:36:07.942Z,10.85
2015-07-18T00:36:20.285Z,10.91
2015-07-18T00:36:31.910Z,10.91
2015-07-18T00:36:44.254Z,10.92
2015-07-18T00:36:56.631Z,10.95
2015-07-18T00:37:08.991Z,10.88
2015-07-18T00:37:21.334Z,10.95
2015-07-18T00:37:33.694Z,10.9
2015-07-18T00:37:46.084Z,10.87
2015-07-18T00:37:58.446Z,10.87
2015-07-18T00:38:10.805Z,10.94
2015-07-18T00:38:23.164Z,10.88
2015-07-18T00:38:35.539Z,10.84
2015-07-18T00:38:47.899Z,10.9
2015-07-18T00:39:00.300Z,10.9
2015-07-18T00:39:12.675Z,10.92
2015-07-18T00:39:25.050Z,10.92
2015-07-18T00:39:37.394Z,10.88
2015-07-18T00:39:49.722Z,10.92
2015-07-18T00:40:02.092Z,10.85
2015-07-18T00:40:14.436Z,10.92
2015-07-18T00:40:26.780Z,10.9
2015-07-18T00:40:39.123Z,10.97
2015-07-18T00:40:51.467Z,10.9
2015-07-18T00:41:03.838Z,10.94
2015-07-18T00:41:16.198Z,10.91
2015-07-18T00:41:28.526Z,10.84
2015-07-18T00:41:40.870Z,10.91
2015-07-18T00:41:53.213Z,10.88
2015-07-18T00:42:05.616Z,10.91
2015-07-18T00:42:17.959Z,10.95
2015-07-18T00:42:30.303Z,10.94
2015-07-18T00:42:42.647Z,10.79
2015-07-18T00:42:54.991Z,10.9
2015-07-18T00:43:07.391Z,10.87
2015-07-18T00:43:19.735Z,10.91
2015-07-18T00:43:32.094Z,10.92
2015-07-18T00:43:44.485Z,10.92
2015-07-18T00:43:56.829Z,10.85
2015-07-18T00:44:09.220Z,10.85
2015-07-18T00:44:21.563Z,10.9
2015-07-18T00:44:33.938Z,10.84
2015-07-18T00:44:46.313Z,10.92
2015-07-18T00:44:58.641Z,10.85
2015-07-18T00:45:10.987Z,10.92
2015-07-18T00:45:22.612Z,10.91
2015-07-18T00:45:34.955Z,10.94
2015-07-18T00:45:47.299Z,10.88
2015-07-18T00:45:59.627Z,10.94
2015-07-18T00:46:11.988Z,10.9
2015-07-18T00:46:24.347Z,10.88
2015-07-18T00:46:36.691Z,10.9
2015-07-18T00:46:49.035Z,10.88
2015-07-18T00:47:01.379Z,10.84
2015-07-18T00:47:13.021Z,10.94
2015-07-18T00:47:25.364Z,10.9
2015-07-18T00:47:37.724Z,10.91
2015-07-18T00:47:50.052Z,10.91
2015-07-18T00:48:02.396Z,10.85
2015-07-18T00:48:14.754Z,10.88
2015-07-18T00:48:27.098Z,10.91
2015-07-18T00:48:39.457Z,10.88
2015-07-18T00:48:51.801Z,10.88
2015-07-18T00:49:04.176Z,10.92
2015-07-18T00:49:16.558Z,10.8
2015-07-18T00:49:28.933Z,10.88
2015-07-18T00:49:41.293Z,10.84
2015-07-18T00:49:53.668Z,10.88
2015-07-18T00:50:06.043Z,10.8
2015-07-18T00:50:18.410Z,10.85
2015-07-18T00:50:30.801Z,10.88
2015-07-18T00:50:43.144Z,10.94
2015-07-18T00:50:55.472Z,10.84
2015-07-18T00:51:07.816Z,10.83
2015-07-18T00:51:20.167Z,10.84
2015-07-18T00:51:32.776Z,10.8
2015-07-18T00:51:45.104Z,10.8
2015-07-18T00:51:57.448Z,10.84
2015-07-18T00:52:09.792Z,10.76
2015-07-18T00:52:22.144Z,10.79
2015-07-18T00:52:34.487Z,10.77
2015-07-18T00:52:46.816Z,10.77
2015-07-18T00:52:59.144Z,10.84
2015-07-18T00:53:11.487Z,10.79
2015-07-18T00:53:23.837Z,10.8
2015-07-18T00:53:36.181Z,10.75
2015-07-18T00:53:48.525Z,10.79
2015-07-18T00:54:00.868Z,10.79
2015-07-18T00:54:13.212Z,10.75
2015-07-18T00:54:25.560Z,10.73
2015-07-18T00:54:37.904Z,10.7
2015-07-18T00:54:50.279Z,10.66
2015-07-18T00:55:02.654Z,10.75
2015-07-18T00:55:15.013Z,10.73
2015-07-18T00:55:27.392Z,10.77
2015-07-18T00:55:39.767Z,10.72
2015-07-18T00:55:51.408Z,10.76
2015-07-18T00:56:03.783Z,10.75
2015-07-18T00:56:16.142Z,10.75
2015-07-18T00:56:28.474Z,10.76
2015-07-18T00:56:40.818Z,10.72
2015-07-18T00:56:53.146Z,10.75
2015-07-18T00:57:05.490Z,10.7
2015-07-18T00:57:17.818Z,10.77
2015-07-18T00:57:30.150Z,10.7
2015-07-18T00:57:42.478Z,10.69
2015-07-18T00:57:54.822Z,10.61
2015-07-18T00:58:07.166Z,10.72
2015-07-18T00:58:19.509Z,10.63
2015-07-18T00:58:31.856Z,10.61
2015-07-18T00:58:44.200Z,10.61
2015-07-18T00:58:56.544Z,10.66
2015-07-18T00:59:08.887Z,10.65
2015-07-18T00:59:21.231Z,10.63
2015-07-18T00:59:33.578Z,10.65
2015-07-18T00:59:45.922Z,10.61
2015-07-18T00:59:57.562Z,10.55
2015-07-18T01:00:09.906Z,10.61
2015-07-18T01:00:22.265Z,10.65
2015-07-18T01:00:34.626Z,10.59
2015-07-18T01:00:47.001Z,10.57
2015-07-18T01:00:59.360Z,10.52
2015-07-18T01:01:11.720Z,10.55
2015-07-18T01:01:24.095Z,10.55
2015-07-18T01:01:36.473Z,10.51
2015-07-18T01:01:48.832Z,10.61
2015-07-18T01:02:01.176Z,10.61
2015-07-18T01:02:13.504Z,10.52
2015-07-18T01:02:25.863Z,10.61
2015-07-18T01:02:38.194Z,10.54
2015-07-18T01:02:50.538Z,10.55
2015-07-18T01:03:02.882Z,10.52
2015-07-18T01:03:15.210Z,10.58
2015-07-18T01:03:27.554Z,10.49
2015-07-18T01:03:39.899Z,10.46
2015-07-18T01:03:52.243Z,10.52
2015-07-18T01:04:04.571Z,10.51
2015-07-18T01:04:16.915Z,10.51
2015-07-18T01:04:29.259Z,10.52
2015-07-18T01:04:41.605Z,10.49
2015-07-18T01:04:53.948Z,10.52
2015-07-18T01:05:06.292Z,10.55
2015-07-18T01:05:18.636Z,10.52
2015-07-18T01:05:30.995Z,10.52
2015-07-18T01:05:43.342Z,10.47
2015-07-18T01:05:55.686Z,10.46
2015-07-18T01:06:08.045Z,10.49
2015-07-18T01:06:20.420Z,10.46
2015-07-18T01:06:32.779Z,10.42
2015-07-18T01:06:45.141Z,10.46
2015-07-18T01:06:57.500Z,10.47
2015-07-18T01:07:09.860Z,10.42
2015-07-18T01:07:22.219Z,10.38
2015-07-18T01:07:34.610Z,10.49
2015-07-18T01:07:46.941Z,10.39
2015-07-18T01:07:59.284Z,10.35
2015-07-18T01:08:11.644Z,10.38
2015-07-18T01:08:23.988Z,10.49
2015-07-18T01:08:36.331Z,10.38
2015-07-18T01:08:48.677Z,10.38
2015-07-18T01:09:01.005Z,10.42
2015-07-18T01:09:13.365Z,10.36
2015-07-18T01:09:25.708Z,10.41
2015-07-18T01:09:38.052Z,10.36
2015-07-18T01:09:50.397Z,10.44
2015-07-18T01:10:02.741Z,10.38
2015-07-18T01:10:15.069Z,10.41
2015-07-18T01:10:27.428Z,10.39
2015-07-18T01:10:39.772Z,10.39
2015-07-18T01:10:52.119Z,10.39
2015-07-18T01:11:04.447Z,10.36
2015-07-18T01:11:16.806Z,10.41
2015-07-18T01:11:29.150Z,10.38
2015-07-18T01:11:40.806Z,10.36
2015-07-18T01:11:53.167Z,10.44
2015-07-18T01:12:05.558Z,10.36
2015-07-18T01:12:17.933Z,10.42
2015-07-18T01:12:30.292Z,10.38
2015-07-18T01:12:42.652Z,10.42
2015-07-18T01:12:55.044Z,10.38
2015-07-18T01:13:07.404Z,10.47
2015-07-18T01:13:19.779Z,10.42
2015-07-18T01:13:32.123Z,10.47
2015-07-18T01:13:44.466Z,10.42
2015-07-18T01:13:56.811Z,10.38
2015-07-18T01:14:09.139Z,10.44
2015-07-18T01:14:21.499Z,10.51
2015-07-18T01:14:33.827Z,10.49
2015-07-18T01:14:46.170Z,10.39
2015-07-18T01:14:58.501Z,10.46
2015-07-18T01:15:10.844Z,10.38
2015-07-18T01:15:23.188Z,10.47
2015-07-18T01:15:35.532Z,10.49
2015-07-18T01:15:47.878Z,10.39
2015-07-18T01:16:00.221Z,10.42
2015-07-18T01:16:12.565Z,10.39
2015-07-18T01:16:24.893Z,10.36
2015-07-18T01:16:37.237Z,10.44
2015-07-18T01:16:49.583Z,10.38
2015-07-18T01:17:01.926Z,10.42
2015-07-18T01:17:14.270Z,10.39
2015-07-18T01:17:26.614Z,10.44
2015-07-18T01:17:38.270Z,10.35
2015-07-18T01:17:50.647Z,10.42
2015-07-18T01:18:02.303Z,10.36
2015-07-18T01:18:14.663Z,10.39
2015-07-18T01:18:27.053Z,10.49
2015-07-18T01:18:39.428Z,10.49
2015-07-18T01:18:51.790Z,10.39
2015-07-18T01:19:04.149Z,10.42
2015-07-18T01:19:16.477Z,10.44
2015-07-18T01:19:28.837Z,10.35
2015-07-18T01:19:41.180Z,10.35
2015-07-18T01:19:53.526Z,10.38
2015-07-18T01:20:05.151Z,10.39
2015-07-18T01:20:17.495Z,10.38
2015-07-18T01:20:29.839Z,10.35
2015-07-18T01:20:42.182Z,10.38
2015-07-18T01:20:54.544Z,10.42
2015-07-18T01:21:06.888Z,10.42
2015-07-18T01:21:19.216Z,10.39
2015-07-18T01:21:31.575Z,10.38
2015-07-18T01:21:43.919Z,10.35
2015-07-18T01:21:56.249Z,10.36
2015-07-18T01:22:08.593Z,10.44
2015-07-18T01:22:20.936Z,10.41
2015-07-18T01:22:33.296Z,10.32
2015-07-18T01:22:45.640Z,10.39
2015-07-18T01:22:57.282Z,10.38
2015-07-18T01:23:09.642Z,10.35
2015-07-18T01:23:22.017Z,10.39
2015-07-18T01:23:34.392Z,10.44
2015-07-18T01:23:46.751Z,10.38
2015-07-18T01:23:59.128Z,10.39
2015-07-18T01:24:11.503Z,10.47
2015-07-18T01:24:23.878Z,10.41
2015-07-18T01:24:36.269Z,10.33
2015-07-18T01:24:48.597Z,10.36
2015-07-18T01:25:00.942Z,10.39
2015-07-18T01:25:13.286Z,10.28
2015-07-18T01:25:25.630Z,10.28
2015-07-18T01:25:37.974Z,10.31
2015-07-18T01:25:50.317Z,10.31
2015-07-18T01:26:02.663Z,10.32
2015-07-18T01:26:15.007Z,10.28
2015-07-18T01:26:27.351Z,10.29
2015-07-18T01:26:39.694Z,10.29
2015-07-18T01:26:52.023Z,10.25
2015-07-18T01:27:04.368Z,10.29
2015-07-18T01:27:16.712Z,10.28
2015-07-18T01:27:29.071Z,10.28
2015-07-18T01:27:41.400Z,10.26
2015-07-18T01:27:53.743Z,10.28
2015-07-18T01:28:06.088Z,10.29
2015-07-18T01:28:18.447Z,10.28
2015-07-18T01:28:30.791Z,10.23
2015-07-18T01:28:43.151Z,10.26
2015-07-18T01:28:55.510Z,10.23
2015-07-18T01:29:07.904Z,10.2
2015-07-18T01:29:20.263Z,10.23
2015-07-18T01:29:32.622Z,10.18
2015-07-18T01:29:44.997Z,10.2
2015-07-18T01:29:57.372Z,10.17
2015-07-18T01:30:09.749Z,10.21
2015-07-18T01:30:22.109Z,10.23
2015-07-18T01:30:34.437Z,10.17
2015-07-18T01:30:46.781Z,10.2
2015-07-18T01:30:59.124Z,10.13
2015-07-18T01:31:11.470Z,10.2
2015-07-18T01:31:23.798Z,10.23
2015-07-18T01:31:36.142Z,10.26
2015-07-18T01:31:48.470Z,10.13
2015-07-18T01:32:00.814Z,10.2
2015-07-18T01:32:13.174Z,10.11
2015-07-18T01:32:25.502Z,10.18
2015-07-18T01:32:37.846Z,10.2
2015-07-18T01:32:50.190Z,10.14
2015-07-18T01:33:02.534Z,10.14
2015-07-18T01:33:14.880Z,10.15
2015-07-18T01:33:27.224Z,10.05
2015-07-18T01:33:39.552Z,10.1
2015-07-18T01:33:51.896Z,10.13
2015-07-18T01:34:04.255Z,10.18
2015-07-18T01:34:16.601Z,10.11
2015-07-18T01:34:28.960Z,10.17
2015-07-18T01:34:41.320Z,10.15
2015-07-18T01:34:53.679Z,10.07
2015-07-18T01:35:06.054Z,10.05
2015-07-18T01:35:18.399Z,10.17
2015-07-18T01:35:30.774Z,10.17
2015-07-18T01:35:43.149Z,10.03
2015-07-18T01:35:55.508Z,10.14
2015-07-18T01:36:07.870Z,10.1
2015-07-18T01:36:20.213Z,10.05
2015-07-18T01:36:32.557Z,10.1
2015-07-18T01:36:44.901Z,10.11
2015-07-18T01:36:57.245Z,10.1
2015-07-18T01:37:09.606Z,10.08
2015-07-18T01:37:21.950Z,10.15
2015-07-18T01:37:34.294Z,10.15
2015-07-18T01:37:46.622Z,10.11
2015-07-18T01:37:58.981Z,10.2
2015-07-18T01:38:11.327Z,10.11
2015-07-18T01:38:23.655Z,10.05
2015-07-18T01:38:35.999Z,10.18
2015-07-18T01:38:48.358Z,10.13
2015-07-18T01:39:00.702Z,10.1
2015-07-18T01:39:13.032Z,10.15
2015-07-18T01:39:25.376Z,10.14
2015-07-18T01:39:37.735Z,10.11
2015-07-18T01:39:50.094Z,10.13
2015-07-18T01:40:02.454Z,10.08
2015-07-18T01:40:14.800Z,10.15
2015-07-18T01:40:27.175Z,10.15
2015-07-18T01:40:39.550Z,10.15
2015-07-18T01:40:51.909Z,10.07
2015-07-18T01:41:04.284Z,10.1
2015-07-18T01:41:16.661Z,10.13
2015-07-18T01:41:29.020Z,10.13
2015-07-18T01:41:41.395Z,10.08
2015-07-18T01:41:53.067Z,10.17
2015-07-18T01:42:05.411Z,10.11
2015-07-18T01:42:17.741Z,10.14
2015-07-18T01:42:30.085Z,10.18
2015-07-18T01:42:42.413Z,10.13
2015-07-18T01:42:54.757Z,10.1
2015-07-18T01:43:07.147Z,10.14
2015-07-18T01:43:19.494Z,10.13
2015-07-18T01:43:31.822Z,10.08
2015-07-18T01:43:44.166Z,10.11
2015-07-18T01:43:56.494Z,10.17
2015-07-18T01:44:08.822Z,10.1
2015-07-18T01:44:21.151Z,10.14
2015-07-18T01:44:32.792Z,10.14
2015-07-18T01:44:45.120Z,10.11
2015-07-18T01:44:57.464Z,10.18
2015-07-18T01:45:09.792Z,10.1
2015-07-18T01:45:22.138Z,10.1
2015-07-18T01:45:34.481Z,10.13
2015-07-18T01:45:46.825Z,10.2
2015-07-18T01:45:59.185Z,10.17
2015-07-18T01:46:11.560Z,10.08
2015-07-18T01:46:23.921Z,10.1
2015-07-18T01:46:36.280Z,10.11
2015-07-18T01:46:48.640Z,10.17
2015-07-18T01:47:01.030Z,10.15
2015-07-18T01:47:13.390Z,10.2
2015-07-18T01:47:25.766Z,10.21
2015-07-18T01:47:38.109Z,10.05
2015-07-18T01:47:50.438Z,10.17
2015-07-18T01:48:02.625Z,10.26
2015-07-18T01:48:14.969Z,10.28
2015-07-18T01:48:26.611Z,10.28
2015-07-18T01:48:38.955Z,10.23
2015-07-18T01:48:51.283Z,10.21
2015-07-18T01:49:03.627Z,10.25
2015-07-18T01:49:15.986Z,10.23
2015-07-18T01:49:28.333Z,10.28
2015-07-18T01:49:40.677Z,10.29
2015-07-18T01:49:53.021Z,10.28
2015-07-18T01:50:05.380Z,10.28
2015-07-18T01:50:17.708Z,10.32
2015-07-18T01:50:30.054Z,10.25
2015-07-18T01:50:42.398Z,10.32
2015-07-18T01:50:54.757Z,10.35
2015-07-18T01:51:07.101Z,10.36
2015-07-18T01:51:19.445Z,10.38
2015-07-18T01:51:31.806Z,10.36
2015-07-18T01:51:44.181Z,10.36
2015-07-18T01:51:56.556Z,10.39
2015-07-18T01:52:08.931Z,10.32
2015-07-18T01:52:21.306Z,10.44
2015-07-18T01:52:33.699Z,10.38
2015-07-18T01:52:46.058Z,10.44
2015-07-18T01:52:58.449Z,10.44
2015-07-18T01:53:10.792Z,10.41
2015-07-18T01:53:23.120Z,10.47
2015-07-18T01:53:35.465Z,10.38
2015-07-18T01:53:47.809Z,10.47
2015-07-18T01:54:00.153Z,10.49
2015-07-18T01:54:12.512Z,10.42
2015-07-18T01:54:24.856Z,10.47
2015-07-18T01:54:37.203Z,10.49
2015-07-18T01:54:49.531Z,10.54
2015-07-18T01:55:01.156Z,10.49
2015-07-18T01:55:13.499Z,10.54
2015-07-18T01:55:25.828Z,10.54
2015-07-18T01:55:38.158Z,10.52
2015-07-18T01:55:50.501Z,10.51
2015-07-18T01:56:02.830Z,10.51
2015-07-18T01:56:15.173Z,10.55
2015-07-18T01:56:27.501Z,10.55
2015-07-18T01:56:39.846Z,10.61
2015-07-18T01:56:52.190Z,10.59
2015-07-18T01:57:04.534Z,10.57
2015-07-18T01:57:16.893Z,10.55
2015-07-18T01:57:29.268Z,10.46
2015-07-18T01:57:41.629Z,10.57
2015-07-18T01:57:53.989Z,10.47
2015-07-18T01:58:06.364Z,10.59
2015-07-18T01:58:18.754Z,10.61
2015-07-18T01:58:31.129Z,10.55
2015-07-18T01:58:43.476Z,10.58
2015-07-18T01:58:55.820Z,10.51
2015-07-18T01:59:08.179Z,10.54
2015-07-18T01:59:20.507Z,10.54
2015-07-18T01:59:32.851Z,10.51
2015-07-18T01:59:45.196Z,10.58
2015-07-18T01:59:57.540Z,10.55
2015-07-18T02:00:09.883Z,10.55
2015-07-18T02:00:22.227Z,10.55
2015-07-18T02:00:34.571Z,10.42
2015-07-18T02:00:46.901Z,10.51
2015-07-18T02:00:59.245Z,10.46
2015-07-18T02:01:11.589Z,10.49
2015-07-18T02:01:23.917Z,10.42
2015-07-18T02:01:36.247Z,10.46
2015-07-18T02:01:48.606Z,10.49
2015-07-18T02:02:00.934Z,10.36
2015-07-18T02:02:13.294Z,10.41
2015-07-18T02:02:25.637Z,10.36
2015-07-18T02:02:37.999Z,10.41
2015-07-18T02:02:50.374Z,10.42
2015-07-18T02:03:02.733Z,10.38
2015-07-18T02:03:15.093Z,10.36
2015-07-18T02:03:27.483Z,10.38
2015-07-18T02:03:39.829Z,10.38
2015-07-18T02:03:52.048Z,10.38
2015-07-18T02:04:04.407Z,10.42
2015-07-18T02:04:16.751Z,10.46
2015-07-18T02:04:29.079Z,10.36
2015-07-18T02:04:41.425Z,10.39
2015-07-18T02:04:53.753Z,10.36
2015-07-18T02:05:06.097Z,10.42
2015-07-18T02:05:18.440Z,10.44
2015-07-18T02:05:30.784Z,10.38
2015-07-18T02:05:43.130Z,10.38
2015-07-18T02:05:55.474Z,10.35
2015-07-18T02:06:07.817Z,10.33
2015-07-18T02:06:20.145Z,10.33
2015-07-18T02:06:32.489Z,10.42
2015-07-18T02:06:44.835Z,10.42
2015-07-18T02:06:57.194Z,10.33
2015-07-18T02:07:09.522Z,10.39
2015-07-18T02:07:21.866Z,10.32
2015-07-18T02:07:34.226Z,10.33
2015-07-18T02:07:46.571Z,10.39
2015-07-18T02:07:58.931Z,10.36
2015-07-18T02:08:11.290Z,10.33
2015-07-18T02:08:23.665Z,10.41
2015-07-18T02:08:36.040Z,10.39
2015-07-18T02:08:48.401Z,10.39
2015-07-18T02:09:00.761Z,10.39
2015-07-18T02:09:13.136Z,10.38
2015-07-18T02:09:25.495Z,10.44
2015-07-18T02:09:37.855Z,10.41
2015-07-18T02:09:50.216Z,10.41
2015-07-18T02:10:02.544Z,10.36
2015-07-18T02:10:14.888Z,10.39
2015-07-18T02:10:27.216Z,10.41
2015-07-18T02:10:39.560Z,10.39
2015-07-18T02:10:51.905Z,10.36
2015-07-18T02:11:04.265Z,10.39
2015-07-18T02:11:16.609Z,10.38
2015-07-18T02:11:28.968Z,10.28
2015-07-18T02:11:41.312Z,10.42
2015-07-18T02:11:53.657Z,10.36
2015-07-18T02:12:05.986Z,10.29
2015-07-18T02:12:18.329Z,10.28
2015-07-18T02:12:30.657Z,10.38
2015-07-18T02:12:43.017Z,10.32
2015-07-18T02:12:55.363Z,10.28
2015-07-18T02:13:07.691Z,10.28
2015-07-18T02:13:20.019Z,10.26
2015-07-18T02:13:32.378Z,10.25
2015-07-18T02:13:44.738Z,10.26
2015-07-18T02:13:57.083Z,10.32
2015-07-18T02:14:09.443Z,10.18
2015-07-18T02:14:21.833Z,10.28
2015-07-18T02:14:34.208Z,10.15
2015-07-18T02:14:46.583Z,10.32
2015-07-18T02:14:58.960Z,10.18
2015-07-18T02:15:11.335Z,10.15
2015-07-18T02:15:23.710Z,10.31
2015-07-18T02:15:36.054Z,10.26
2015-07-18T02:15:48.382Z,10.14
2015-07-18T02:16:00.728Z,10.28
2015-07-18T02:16:13.056Z,10.15
2015-07-18T02:16:25.400Z,10.25
2015-07-18T02:16:37.728Z,10.2
2015-07-18T02:16:50.072Z,10.2
2015-07-18T02:17:02.402Z,10.2
2015-07-18T02:17:14.746Z,10.21
2015-07-18T02:17:27.089Z,10.15
2015-07-18T02:17:39.433Z,10.17
2015-07-18T02:17:51.824Z,10.2
2015-07-18T02:18:04.168Z,10.17
2015-07-18T02:18:16.497Z,10.15
2015-07-18T02:18:28.825Z,10.23
2015-07-18T02:18:41.184Z,10.13
2015-07-18T02:18:53.528Z,10.08
2015-07-18T02:19:05.875Z,10.18
2015-07-18T02:19:17.515Z,10.1
2015-07-18T02:19:29.843Z,10.13
2015-07-18T02:19:42.203Z,10.18
2015-07-18T02:19:54.578Z,10.11
2015-07-18T02:20:06.939Z,10.14
2015-07-18T02:20:19.314Z,10.13
2015-07-18T02:20:31.673Z,10.1
2015-07-18T02:20:44.048Z,10.17
2015-07-18T02:20:56.439Z,10.17
2015-07-18T02:21:08.769Z,10.1
2015-07-18T02:21:21.113Z,10.17
2015-07-18T02:21:33.457Z,10.1
2015-07-18T02:21:45.816Z,10.1
2015-07-18T02:21:58.160Z,10.13
2015-07-18T02:22:10.490Z,10.05
2015-07-18T02:22:22.834Z,10.05
2015-07-18T02:22:35.162Z,10.05
2015-07-18T02:22:47.506Z,10.1
2015-07-18T02:22:59.834Z,10.05
2015-07-18T02:23:12.178Z,10.08
2015-07-18T02:23:24.507Z,10.1
2015-07-18T02:23:36.850Z,10.13
2015-07-18T02:23:49.194Z,10.08
2015-07-18T02:24:01.538Z,10.08
2015-07-18T02:24:13.869Z,10.08
2015-07-18T02:24:26.213Z,10.02
2015-07-18T02:24:38.556Z,10.08
2015-07-18T02:24:50.900Z,10.08
2015-07-18T02:25:03.244Z,10.13
2015-07-18T02:25:15.605Z,10.05
2015-07-18T02:25:27.980Z,10.1
2015-07-18T02:25:40.340Z,10.02
2015-07-18T02:25:52.699Z,10
2015-07-18T02:26:05.058Z,10.08
2015-07-18T02:26:17.451Z,10.08
2015-07-18T02:26:29.810Z,10.14
2015-07-18T02:26:42.201Z,10.13
2015-07-18T02:26:54.545Z,10.15
2015-07-18T02:27:06.889Z,10.07
2015-07-18T02:27:19.218Z,10.07
2015-07-18T02:27:31.546Z,10.1
2015-07-18T02:27:43.890Z,10.2
2015-07-18T02:27:56.233Z,10.17
2015-07-18T02:28:08.561Z,10.07
2015-07-18T02:28:20.907Z,10.03
2015-07-18T02:28:33.251Z,10.1
2015-07-18T02:28:45.595Z,10.17
2015-07-18T02:28:57.923Z,10.15
2015-07-18T02:29:10.267Z,10.17
2015-07-18T02:29:22.598Z,10.08
2015-07-18T02:29:34.957Z,10.08
2015-07-18T02:29:47.301Z,10.14
2015-07-18T02:29:58.926Z,10.08
2015-07-18T02:30:11.270Z,10.17
2015-07-18T02:30:23.646Z,10.1
2015-07-18T02:30:35.974Z,10.13
2015-07-18T02:30:48.333Z,10.1
2015-07-18T02:31:00.708Z,10.13
2015-07-18T02:31:13.067Z,10.17
2015-07-18T02:31:25.445Z,10.14
2015-07-18T02:31:37.805Z,10.18
2015-07-18T02:31:50.164Z,10.23
2015-07-18T02:32:02.524Z,10.11
2015-07-18T02:32:14.883Z,10.17
2015-07-18T02:32:27.212Z,10.1
2015-07-18T02:32:39.556Z,10.14
2015-07-18T02:32:51.884Z,10.18
2015-07-18T02:33:04.493Z,10.11
2015-07-18T02:33:16.837Z,10.11
2015-07-18T02:33:29.167Z,10.18
2015-07-18T02:33:41.495Z,10.15
2015-07-18T02:33:53.839Z,10.14
2015-07-18T02:34:06.183Z,10.13
2015-07-18T02:34:18.527Z,10.21
2015-07-18T02:34:30.858Z,10.17
2015-07-18T02:34:43.201Z,10.1
2015-07-18T02:34:55.545Z,10.08
2015-07-18T02:35:07.889Z,10.2
2015-07-18T02:35:20.233Z,10.15
2015-07-18T02:35:32.562Z,10.11
2015-07-18T02:35:44.921Z,10.23
2015-07-18T02:35:57.281Z,10.17
2015-07-18T02:36:09.624Z,10.13
2015-07-18T02:36:21.968Z,10.21
2015-07-18T02:36:34.329Z,10.08
2015-07-18T02:36:46.720Z,10.15
2015-07-18T02:36:59.079Z,10.2
2015-07-18T02:37:11.439Z,10.15
2015-07-18T02:37:23.798Z,10.15
2015-07-18T02:37:36.160Z,10.23
2015-07-18T02:37:48.519Z,10.14
2015-07-18T02:38:00.878Z,10.21
2015-07-18T02:38:13.206Z,10.18
2015-07-18T02:38:25.550Z,10.17
2015-07-18T02:38:37.880Z,10.17
2015-07-18T02:38:50.224Z,10.2
2015-07-18T02:39:02.568Z,10.28
2015-07-18T02:39:14.896Z,10.13
2015-07-18T02:39:27.240Z,10.18
2015-07-18T02:39:39.585Z,10.18